Time;durP1;ratioP1;P1;durP2;ratioP2;P2;SDS_P1;SDS_P2;PMS_P1;PMS_P2;Temp;Humidity;BMP_temperature;BMP_pressure;BME280_temperature;BME280_humidity;BME280_pressure;Samples;Min_cycle;Max_cycle;Signal;HPM_P1;HPM_P2
2023/08/20 00:01:25;;;;;;;5.63;2.80;;;;;;;;;;5150020;27;20125;-73
2023/08/20 00:03:53;;;;;;;5.30;2.65;;;;;;;;;;5149725;27;20535;-73
2023/08/20 00:06:24;;;;;;;5.28;2.63;;;;;;;;;;5149888;27;20053;-73
2023/08/20 00:08:53;;;;;;;;;;;;;;;;;;5149589;27;20047;-73
2023/08/20 00:11:20;;;;;;;5.30;2.58;;;;;;;;;;5149792;27;19938;-73
2023/08/20 00:13:49;;;;;;;4.83;2.90;;;;;;;;;;5149571;27;20139;-73
2023/08/20 00:16:16;;;;;;;4.65;2.67;;;;;;;;;;5149789;27;20053;-73
2023/08/20 00:18:43;;;;;;;7.00;2.63;;;;;;;;;;5149827;27;20137;-73
2023/08/20 00:21:10;;;;;;;6.53;2.58;;;;;;;;;;5149850;27;20049;-73
2023/08/20 00:23:37;;;;;;;8.55;2.53;;;;;;;;;;5149196;27;20043;-74
2023/08/20 00:26:04;;;;;;;5.78;2.90;;;;;;;;;;5149712;27;20038;-72
2023/08/20 00:28:33;;;;;;;6.20;2.78;;;;;;;;;;5149342;27;20398;-73
2023/08/20 00:31:01;;;;;;;6.78;2.50;;;;;;;;;;5149392;27;20470;-74
2023/08/20 00:33:28;;;;;;;4.00;2.85;;;;;;;;;;5149393;27;20066;-73
2023/08/20 00:35:55;;;;;;;8.48;3.10;;;;;;;;;;5151791;27;20490;-73
2023/08/20 00:38:22;;;;;;;6.55;3.10;;;;;;;;;;5153038;27;20058;-72
2023/08/20 00:40:48;;;;;;;5.25;2.65;;;;;;;;;;5152864;27;20047;-72
2023/08/20 00:43:15;;;;;;;7.80;2.50;;;;;;;;;;5153193;27;20114;-72
2023/08/20 00:45:42;;;;;;;6.55;2.90;;;;;;;;;;5152999;27;20114;-74
2023/08/20 00:48:10;;;;;;;4.38;2.30;;;;;;;;;;5152824;27;20429;-72
2023/08/20 00:50:38;;;;;;;5.10;2.75;;;;;;;;;;5152802;27;20039;-73
2023/08/20 00:53:05;;;;;;;5.28;2.70;;;;;;;;;;5152772;27;20039;-72
2023/08/20 00:55:32;;;;;;;5.63;2.85;;;;;;;;;;5152888;27;20039;-73
2023/08/20 00:58:00;;;;;;;6.75;2.80;;;;;;;;;;5153217;27;20043;-74
2023/08/20 01:00:26;;;;;;;4.38;2.72;;;;;;;;;;5151392;27;20545;-73
2023/08/20 01:02:53;;;;;;;5.20;2.80;;;;;;;;;;5152623;27;20043;-73
2023/08/20 01:05:23;;;;;;;4.43;2.90;;;;;;;;;;5152552;27;20043;-73
2023/08/20 01:08:04;;;;;;;3.80;2.50;;;;;;;;;;5152590;27;20167;-72
2023/08/20 01:10:52;;;;;;;4.32;2.40;;;;;;;;;;5152540;27;20506;-72
2023/08/20 01:13:19;;;;;;;6.53;2.53;;;;;;;;;;5152902;27;20053;-73
2023/08/20 01:15:45;;;;;;;4.45;2.53;;;;;;;;;;5152464;27;20072;-73
2023/08/20 01:18:12;;;;;;;5.07;2.83;;;;;;;;;;5152768;27;20047;-72
2023/08/20 01:20:51;;;;;;;4.78;2.53;;;;;;;;;;5151924;27;20383;-73
2023/08/20 01:23:48;;;;;;;4.68;2.78;;;;;;;;;;5151993;27;20057;-73
2023/08/20 01:26:22;;;;;;;7.22;2.67;;;;;;;;;;5152284;27;20074;-72
2023/08/20 01:28:49;;;;;;;3.72;2.75;;;;;;;;;;5152584;27;20050;-72
2023/08/20 01:31:16;;;;;;;5.88;3.25;;;;;;;;;;5151945;27;20657;-72
2023/08/20 01:33:43;;;;;;;4.93;3.35;;;;;;;;;;5151994;27;20062;-72
2023/08/20 01:36:09;;;;;;;8.80;3.47;;;;;;;;;;5151991;27;20620;-73
2023/08/20 01:38:37;;;;;;;6.32;3.40;;;;;;;;;;5151797;27;20050;-72
2023/08/20 01:41:04;;;;;;;4.97;3.03;;;;;;;;;;5151755;27;20046;-72
2023/08/20 01:43:31;;;;;;;6.13;3.50;;;;;;;;;;5152184;27;20046;-72
2023/08/20 01:45:58;;;;;;;10.80;3.63;;;;;;;;;;5151615;27;20042;-73
2023/08/20 01:48:24;;;;;;;4.82;3.55;;;;;;;;;;5151468;27;20687;-72
2023/08/20 01:50:51;;;;;;;6.03;3.28;;;;;;;;;;5151755;27;20079;-72
2023/08/20 01:53:18;;;;;;;6.80;3.78;;;;;;;;;;5151511;27;20565;-72
2023/08/20 01:55:45;;;;;;;4.13;3.22;;;;;;;;;;5151605;27;20128;-72
2023/08/20 01:58:11;;;;;;;6.15;3.80;;;;;;;;;;5150534;27;20043;-72
2023/08/20 02:00:38;;;;;;;8.13;3.83;;;;;;;;;;5151604;27;20042;-72
2023/08/20 02:03:05;;;;;;;4.53;3.22;;;;;;;;;;5151816;27;20065;-72
2023/08/20 02:05:31;;;;;;;5.30;3.38;;;;;;;;;;5151538;27;20073;-72
2023/08/20 02:07:58;;;;;;;7.60;3.70;;;;;;;;;;5151660;27;20051;-74
2023/08/20 02:10:25;;;;;;;4.60;2.90;;;;;;;;;;5151356;27;20054;-72
2023/08/20 02:12:51;;;;;;;7.43;3.70;;;;;;;;;;5151309;27;20046;-72
2023/08/20 02:15:18;;;;;;;8.38;4.07;;;;;;;;;;5150916;27;20047;-72
2023/08/20 02:17:45;;;;;;;6.05;3.40;;;;;;;;;;5151167;27;20043;-72
2023/08/20 02:20:11;;;;;;;6.13;3.63;;;;;;;;;;5151044;27;20047;-72
2023/08/20 02:22:38;;;;;;;5.47;3.85;;;;;;;;;;5151213;27;20049;-72
2023/08/20 02:25:05;;;;;;;5.05;3.40;;;;;;;;;;5151444;27;20043;-72
2023/08/20 02:27:32;;;;;;;11.93;3.83;;;;;;;;;;5151636;27;20038;-72
2023/08/20 02:30:02;;;;;;;8.18;3.70;;;;;;;;;;5150043;27;20043;-72
2023/08/20 02:32:31;;;;;;;7.30;3.90;;;;;;;;;;5150791;27;20108;-72
2023/08/20 02:34:58;;;;;;;7.80;4.20;;;;;;;;;;5150899;27;20046;-72
2023/08/20 02:37:27;;;;;;;6.15;3.53;;;;;;;;;;5150571;27;20096;-72
2023/08/20 02:39:54;;;;;;;5.35;3.80;;;;;;;;;;5150822;27;20154;-72
2023/08/20 02:42:20;;;;;;;6.80;3.90;;;;;;;;;;5151008;27;20118;-72
2023/08/20 02:44:47;;;;;;;6.82;3.42;;;;;;;;;;5150933;27;20468;-72
2023/08/20 02:47:14;;;;;;;10.95;4.32;;;;;;;;;;5150718;27;20051;-72
2023/08/20 02:49:40;;;;;;;5.55;3.75;;;;;;;;;;5150735;27;20051;-72
2023/08/20 02:52:07;;;;;;;5.78;3.80;;;;;;;;;;5150235;27;20057;-72
2023/08/20 02:54:33;;;;;;;4.90;3.13;;;;;;;;;;5150645;27;20050;-72
2023/08/20 02:57:03;;;;;;;5.00;3.13;;;;;;;;;;5149183;27;20054;-72
2023/08/20 02:59:30;;;;;;;10.57;3.67;;;;;;;;;;5150234;27;20649;-72
2023/08/20 03:01:56;;;;;;;6.07;3.42;;;;;;;;;;5150387;27;20126;-72
2023/08/20 03:04:23;;;;;;;6.65;3.17;;;;;;;;;;5150801;27;20114;-72
2023/08/20 03:06:50;;;;;;;6.65;2.95;;;;;;;;;;5149035;27;20130;-72
2023/08/20 03:09:16;;;;;;;5.40;3.60;;;;;;;;;;5150136;27;20046;-72
2023/08/20 03:11:43;;;;;;;4.93;3.35;;;;;;;;;;5149887;27;20528;-72
2023/08/20 03:14:10;;;;;;;6.75;3.42;;;;;;;;;;5150638;27;20054;-72
2023/08/20 03:16:36;;;;;;;6.85;3.35;;;;;;;;;;5150288;27;20066;-72
2023/08/20 03:19:06;;;;;;;9.35;3.97;;;;;;;;;;5150669;27;20054;-73
2023/08/20 03:21:33;;;;;;;5.60;3.45;;;;;;;;;;5150013;27;20138;-73
2023/08/20 03:24:03;;;;;;;5.32;3.35;;;;;;;;;;5149737;27;20462;-72
2023/08/20 03:26:29;;;;;;;6.90;3.60;;;;;;;;;;5149860;27;20046;-72
2023/08/20 03:28:56;;;;;;;7.88;3.70;;;;;;;;;;5149919;27;20439;-72
2023/08/20 03:31:22;;;;;;;7.05;3.58;;;;;;;;;;5149881;27;20754;-72
2023/08/20 03:33:49;;;;;;;5.47;3.33;;;;;;;;;;5150201;27;20088;-72
2023/08/20 03:36:16;;;;;;;5.75;3.88;;;;;;;;;;5149915;27;20356;-73
2023/08/20 03:38:43;;;;;;;4.50;3.15;;;;;;;;;;5149653;27;20042;-72
2023/08/20 03:41:09;;;;;;;4.88;3.20;;;;;;;;;;5149740;27;20050;-72
2023/08/20 03:43:36;;;;;;;5.85;3.20;;;;;;;;;;5149839;27;20043;-72
2023/08/20 03:46:03;;;;;;;5.68;3.33;;;;;;;;;;5149911;27;20054;-72
2023/08/20 03:48:29;;;;;;;4.47;3.10;;;;;;;;;;5150074;27;20047;-72
2023/08/20 03:50:56;;;;;;;4.72;3.13;;;;;;;;;;5150162;27;20077;-72
2023/08/20 03:53:23;;;;;;;5.63;3.35;;;;;;;;;;5149337;27;20509;-72
2023/08/20 03:55:50;;;;;;;5.15;3.10;;;;;;;;;;5149981;27;20042;-72
2023/08/20 03:58:17;;;;;;;5.63;3.28;;;;;;;;;;5149676;27;20043;-72
2023/08/20 04:00:43;;;;;;;5.78;3.78;;;;;;;;;;5149633;27;20409;-72
2023/08/20 04:03:10;;;;;;;6.75;3.83;;;;;;;;;;5149571;27;20049;-72
2023/08/20 04:05:37;;;;;;;5.15;3.13;;;;;;;;;;5149874;27;20051;-72
2023/08/20 04:08:07;;;;;;;5.22;3.00;;;;;;;;;;5149011;27;20047;-72
2023/08/20 04:10:34;;;;;;;;;;;;;;;;;;5152427;27;20053;-71
2023/08/20 04:13:01;;;;;;;5.90;3.40;;;;;;;;;;5153440;27;19946;-73
2023/08/20 04:15:28;;;;;;;5.22;3.22;;;;;;;;;;5153939;27;20049;-73
2023/08/20 04:17:55;;;;;;;4.82;3.25;;;;;;;;;;5153562;27;20498;-72
2023/08/20 04:20:22;;;;;;;6.32;3.70;;;;;;;;;;5153751;27;20047;-73
2023/08/20 04:22:48;;;;;;;6.88;3.80;;;;;;;;;;5151512;27;20046;-76
2023/08/20 04:25:15;;;;;;;7.90;3.40;;;;;;;;;;5153738;27;20043;-75
2023/08/20 04:27:42;;;;;;;5.05;3.53;;;;;;;;;;5153287;27;20043;-74
2023/08/20 04:30:09;;;;;;;5.68;3.63;;;;;;;;;;5154057;27;20039;-75
2023/08/20 04:32:39;;;;;;;4.50;3.25;;;;;;;;;;5153073;27;20054;-75
2023/08/20 04:35:10;;;;;;;8.25;3.97;;;;;;;;;;5153727;27;20052;-75
2023/08/20 04:37:39;;;;;;;;;;;;;;;;;;5153486;27;20381;-74
2023/08/20 04:40:09;;;;;;;7.13;3.30;;;;;;;;;;5153426;27;19919;-73
2023/08/20 04:42:36;;;;;;;5.50;3.10;;;;;;;;;;5152709;27;20046;-74
2023/08/20 04:45:03;;;;;;;5.97;3.22;;;;;;;;;;5153518;27;20444;-74
2023/08/20 04:47:29;;;;;;;6.85;3.42;;;;;;;;;;5152775;27;20050;-74
2023/08/20 04:49:56;;;;;;;7.05;3.55;;;;;;;;;;5153397;27;20042;-74
2023/08/20 04:52:22;;;;;;;5.95;3.45;;;;;;;;;;5152038;27;20708;-74
2023/08/20 04:54:49;;;;;;;6.55;3.55;;;;;;;;;;5151661;27;20042;-74
2023/08/20 04:57:16;;;;;;;4.68;3.50;;;;;;;;;;5152835;27;20043;-73
2023/08/20 04:59:45;;;;;;;7.72;3.65;;;;;;;;;;5152605;27;20134;-74
2023/08/20 05:02:12;;;;;;;5.07;3.28;;;;;;;;;;5152505;27;20577;-74
2023/08/20 05:04:39;;;;;;;6.40;3.50;;;;;;;;;;5152665;27;20512;-74
2023/08/20 05:07:06;;;;;;;5.55;3.42;;;;;;;;;;5152564;27;20054;-73
2023/08/20 05:09:33;;;;;;;7.05;3.55;;;;;;;;;;5152240;27;20046;-74
2023/08/20 05:12:00;;;;;;;4.65;3.00;;;;;;;;;;5152194;27;20463;-74
2023/08/20 05:14:27;;;;;;;5.15;3.00;;;;;;;;;;5152538;27;20050;-74
2023/08/20 05:16:53;;;;;;;9.20;3.00;;;;;;;;;;5152364;27;20107;-73
2023/08/20 05:19:20;;;;;;;5.78;3.50;;;;;;;;;;5152183;27;20529;-75
2023/08/20 05:21:47;;;;;;;5.03;3.30;;;;;;;;;;5152653;27;20043;-74
2023/08/20 05:24:14;;;;;;;8.80;3.95;;;;;;;;;;5152035;27;20379;-73
2023/08/20 05:26:40;;;;;;;5.85;3.42;;;;;;;;;;5152621;27;20051;-74
2023/08/20 05:29:07;;;;;;;5.78;3.35;;;;;;;;;;5152290;27;20062;-73
2023/08/20 05:31:34;;;;;;;5.22;3.55;;;;;;;;;;5151832;27;20049;-74
2023/08/20 05:34:00;;;;;;;4.82;3.47;;;;;;;;;;5151646;27;20047;-73
2023/08/20 05:36:27;;;;;;;5.05;3.30;;;;;;;;;;5152370;27;20046;-74
2023/08/20 05:38:53;;;;;;;6.20;3.75;;;;;;;;;;5151763;27;20061;-74
2023/08/20 05:41:20;;;;;;;5.88;3.65;;;;;;;;;;5152267;27;20129;-73
2023/08/20 05:43:47;;;;;;;6.00;3.60;;;;;;;;;;5151569;27;20083;-73
2023/08/20 05:46:13;;;;;;;6.55;3.55;;;;;;;;;;5152023;27;20043;-73
2023/08/20 05:48:43;;;;;;;5.53;3.40;;;;;;;;;;5151730;27;20062;-74
2023/08/20 05:51:10;;;;;;;5.73;3.47;;;;;;;;;;5152096;27;20054;-73
2023/08/20 05:53:38;;;;;;;5.82;3.63;;;;;;;;;;5151113;27;20086;-74
2023/08/20 05:56:05;;;;;;;7.70;3.88;;;;;;;;;;5152018;27;20042;-73
2023/08/20 05:58:32;;;;;;;6.90;3.42;;;;;;;;;;5151635;27;20050;-74
2023/08/20 06:00:58;;;;;;;10.15;5.07;;;;;;;;;;5151633;27;20897;-73
2023/08/20 06:03:25;;;;;;;7.05;3.92;;;;;;;;;;5151508;27;20046;-73
2023/08/20 06:05:52;;;;;;;5.70;3.67;;;;;;;;;;5151667;27;20130;-73
2023/08/20 06:08:18;;;;;;;5.57;3.35;;;;;;;;;;5150898;27;20078;-72
2023/08/20 06:10:45;;;;;;;5.20;3.78;;;;;;;;;;5151517;27;20053;-73
2023/08/20 06:13:15;;;;;;;7.78;3.95;;;;;;;;;;5151267;27;20116;-73
2023/08/20 06:15:44;;;;;;;5.05;3.60;;;;;;;;;;5151580;27;20421;-73
2023/08/20 06:18:10;;;;;;;4.95;3.72;;;;;;;;;;5151893;27;20047;-72
2023/08/20 06:20:39;;;;;;;6.65;4.05;;;;;;;;;;5151725;27;20051;-73
2023/08/20 06:23:05;;;;;;;4.82;3.42;;;;;;;;;;5150821;27;20047;-73
2023/08/20 06:25:32;;;;;;;5.53;3.58;;;;;;;;;;5151219;27;20047;-72
2023/08/20 06:27:59;;;;;;;5.65;3.42;;;;;;;;;;5151103;27;20047;-72
2023/08/20 06:30:25;;;;;;;6.25;3.47;;;;;;;;;;5151374;27;20490;-73
2023/08/20 06:32:52;;;;;;;9.32;3.88;;;;;;;;;;5150511;27;20043;-73
2023/08/20 06:35:19;;;;;;;7.30;3.80;;;;;;;;;;5151443;27;20042;-73
2023/08/20 06:37:45;;;;;;;6.72;3.67;;;;;;;;;;5150631;27;20057;-73
2023/08/20 06:40:13;;;;;;;6.57;3.80;;;;;;;;;;5151097;27;20049;-73
2023/08/20 06:42:43;;;;;;;8.40;3.53;;;;;;;;;;5151038;27;20051;-73
2023/08/20 06:45:10;;;;;;;6.63;3.78;;;;;;;;;;5151175;27;20042;-74
2023/08/20 06:47:36;;;;;;;9.05;3.88;;;;;;;;;;5151292;27;20460;-73
2023/08/20 06:50:05;;;;;;;5.30;3.70;;;;;;;;;;5150826;27;20061;-72
2023/08/20 06:52:32;;;;;;;5.88;3.33;;;;;;;;;;5150723;27;20042;-73
2023/08/20 06:54:59;;;;;;;5.20;3.08;;;;;;;;;;5151233;27;20039;-73
2023/08/20 06:57:25;;;;;;;4.88;3.42;;;;;;;;;;5151037;27;20090;-73
2023/08/20 06:59:52;;;;;;;5.13;3.20;;;;;;;;;;5150784;27;20425;-73
2023/08/20 07:02:19;;;;;;;5.80;3.15;;;;;;;;;;5150414;27;20513;-73
2023/08/20 07:04:45;;;;;;;5.50;3.20;;;;;;;;;;5150704;27;20054;-73
2023/08/20 07:07:13;;;;;;;5.78;3.05;;;;;;;;;;5150932;27;20062;-73
2023/08/20 07:09:39;;;;;;;6.90;3.15;;;;;;;;;;5150439;27;20054;-72
2023/08/20 07:12:06;;;;;;;5.82;3.45;;;;;;;;;;5151029;27;20096;-73
2023/08/20 07:14:33;;;;;;;6.60;2.88;;;;;;;;;;5150408;27;20060;-73
2023/08/20 07:17:02;;;;;;;6.03;3.22;;;;;;;;;;5151106;27;20043;-74
2023/08/20 07:19:29;;;;;;;4.95;3.30;;;;;;;;;;5150464;27;20138;-73
2023/08/20 07:21:55;;;;;;;5.63;3.15;;;;;;;;;;5150611;27;20051;-72
2023/08/20 07:24:25;;;;;;;5.55;3.22;;;;;;;;;;5149902;27;20047;-73
2023/08/20 07:26:52;;;;;;;5.90;2.90;;;;;;;;;;5150784;27;20051;-73
2023/08/20 07:29:19;;;;;;;5.75;3.30;;;;;;;;;;5150364;27;20364;-74
2023/08/20 07:31:45;;;;;;;6.00;3.25;;;;;;;;;;5150581;27;20043;-73
2023/08/20 07:34:12;;;;;;;3.67;2.50;;;;;;;;;;5150021;27;20127;-72
2023/08/20 07:36:39;;;;;;;4.47;3.10;;;;;;;;;;5150404;27;20043;-73
2023/08/20 07:39:06;;;;;;;5.40;3.00;;;;;;;;;;5149538;27;20082;-73
2023/08/20 07:41:32;;;;;;;5.75;2.90;;;;;;;;;;5150487;27;20043;-72
2023/08/20 07:43:59;;;;;;;6.95;3.08;;;;;;;;;;5150001;27;20529;-73
2023/08/20 07:46:26;;;;;;;6.07;3.28;;;;;;;;;;5154327;27;20046;-72
2023/08/20 07:48:52;;;;;;;3.70;2.88;;;;;;;;;;5154508;27;20082;-73
2023/08/20 07:51:19;;;;;;;4.70;3.30;;;;;;;;;;5154381;27;20042;-73
2023/08/20 07:53:46;;;;;;;4.28;2.88;;;;;;;;;;5154012;27;20046;-73
2023/08/20 07:56:12;;;;;;;4.72;3.20;;;;;;;;;;5154229;27;20494;-73
2023/08/20 07:58:39;;;;;;;3.78;2.92;;;;;;;;;;5154508;27;20043;-72
2023/08/20 08:01:06;;;;;;;7.10;3.03;;;;;;;;;;5154438;27;20042;-73
2023/08/20 08:03:32;;;;;;;4.22;2.92;;;;;;;;;;5154376;27;20482;-73
2023/08/20 08:05:59;;;;;;;5.38;2.83;;;;;;;;;;5154287;27;20054;-73
2023/08/20 08:08:26;;;;;;;5.80;2.75;;;;;;;;;;5153736;27;20425;-73
2023/08/20 08:10:52;;;;;;;5.38;2.85;;;;;;;;;;5154085;27;20053;-73
2023/08/20 08:13:21;;;;;;;6.55;3.25;;;;;;;;;;5153878;27;20069;-74
2023/08/20 08:15:51;;;;;;;4.50;3.22;;;;;;;;;;5152507;27;20054;-73
2023/08/20 08:18:21;;;;;;;3.85;2.67;;;;;;;;;;5154072;27;20126;-73
2023/08/20 08:20:52;;;;;;;6.65;2.80;;;;;;;;;;5153745;27;20609;-73
2023/08/20 08:23:18;;;;;;;3.58;2.47;;;;;;;;;;5153502;27;20050;-74
2023/08/20 08:25:45;;;;;;;4.38;2.67;;;;;;;;;;5153714;27;20053;-73
2023/08/20 08:28:12;;;;;;;4.53;2.88;;;;;;;;;;5154205;27;20043;-73
2023/08/20 08:30:39;;;;;;;5.45;2.63;;;;;;;;;;5153379;27;20482;-72
2023/08/20 08:33:06;;;;;;;4.70;2.53;;;;;;;;;;5153492;27;20054;-73
2023/08/20 08:35:33;;;;;;;3.75;2.42;;;;;;;;;;5153452;27;20049;-73
2023/08/20 08:38:00;;;;;;;8.60;2.53;;;;;;;;;;5153434;27;20151;-72
2023/08/20 08:40:29;;;;;;;5.85;2.55;;;;;;;;;;5153784;27;20049;-73
2023/08/20 08:42:56;;;;;;;4.78;2.50;;;;;;;;;;5153780;27;20076;-73
2023/08/20 08:45:23;;;;;;;5.32;2.35;;;;;;;;;;5153061;27;20035;-72
2023/08/20 08:47:54;;;;;;;5.57;2.63;;;;;;;;;;5153707;27;20130;-73
2023/08/20 08:50:24;;;;;;;5.28;2.45;;;;;;;;;;5152931;27;20047;-73
2023/08/20 08:52:54;;;;;;;4.95;2.63;;;;;;;;;;5153218;27;20378;-73
2023/08/20 08:55:24;;;;;;;3.80;2.38;;;;;;;;;;5152471;27;20049;-74
2023/08/20 08:57:54;;;;;;;4.32;2.47;;;;;;;;;;5153441;27;20043;-74
2023/08/20 09:00:21;;;;;;;3.88;2.40;;;;;;;;;;5153312;27;20039;-75
2023/08/20 09:02:47;;;;;;;4.55;2.45;;;;;;;;;;5153251;27;20046;-73
2023/08/20 09:05:14;;;;;;;3.53;2.35;;;;;;;;;;5152608;27;20042;-73
2023/08/20 09:07:43;;;;;;;6.00;2.50;;;;;;;;;;5152771;27;20058;-73
2023/08/20 09:10:10;;;;;;;6.13;2.72;;;;;;;;;;5152618;27;20054;-72
2023/08/20 09:12:37;;;;;;;6.68;2.50;;;;;;;;;;5152835;27;20047;-73
2023/08/20 09:15:10;;;;;;;4.15;2.20;;;;;;;;;;5152619;27;20414;-72
2023/08/20 09:17:37;;;;;;;6.85;2.55;;;;;;;;;;5152857;27;20413;-72
2023/08/20 09:20:04;;;;;;;4.55;2.08;;;;;;;;;;5152831;27;20058;-73
2023/08/20 09:22:31;;;;;;;4.20;2.30;;;;;;;;;;5151241;27;20136;-72
2023/08/20 09:24:58;;;;;;;8.10;2.30;;;;;;;;;;5152002;27;20057;-73
2023/08/20 09:27:24;;;;;;;6.30;2.40;;;;;;;;;;5152878;27;20046;-73
2023/08/20 09:29:55;;;;;;;3.63;2.30;;;;;;;;;;5152504;27;20048;-73
2023/08/20 09:32:24;;;;;;;4.90;2.10;;;;;;;;;;5152985;27;20051;-73
2023/08/20 09:34:56;;;;;;;4.78;2.20;;;;;;;;;;5152405;27;20049;-73
2023/08/20 09:37:24;;;;;;;3.45;1.92;;;;;;;;;;5152050;27;20457;-73
2023/08/20 09:39:51;;;;;;;4.50;2.08;;;;;;;;;;5152409;27;20183;-73
2023/08/20 09:42:18;;;;;;;6.20;2.35;;;;;;;;;;5152380;27;20043;-72
2023/08/20 09:44:46;;;;;;;7.43;2.50;;;;;;;;;;5152314;27;20065;-72
2023/08/20 09:47:16;;;;;;;5.55;2.40;;;;;;;;;;5151271;27;20215;-73
2023/08/20 09:49:45;;;;;;;3.63;2.22;;;;;;;;;;5152292;27;20073;-73
2023/08/20 09:52:17;;;;;;;5.75;2.20;;;;;;;;;;5151792;27;20047;-73
2023/08/20 09:54:59;;;;;;;6.22;2.42;;;;;;;;;;5151889;27;20043;-73
2023/08/20 09:57:31;;;;;;;4.15;2.20;;;;;;;;;;5151909;27;20051;-73
2023/08/20 10:00:00;;;;;;;10.63;2.50;;;;;;;;;;5151713;27;20045;-73
2023/08/20 10:02:27;;;;;;;4.18;2.10;;;;;;;;;;5151862;27;20046;-73
2023/08/20 10:04:54;;;;;;;3.83;2.25;;;;;;;;;;5151762;27;20082;-73
2023/08/20 10:07:25;;;;;;;3.72;2.17;;;;;;;;;;5149629;27;20050;-73
2023/08/20 10:09:52;;;;;;;5.43;2.60;;;;;;;;;;5151980;27;20047;-73
2023/08/20 10:12:20;;;;;;;5.63;2.42;;;;;;;;;;5152046;27;20049;-73
2023/08/20 10:14:46;;;;;;;4.40;2.08;;;;;;;;;;5151787;27;20062;-72
2023/08/20 10:17:15;;;;;;;4.65;2.47;;;;;;;;;;5151249;27;20649;-72
2023/08/20 10:19:42;;;;;;;3.63;2.20;;;;;;;;;;5150722;27;20043;-73
2023/08/20 10:22:09;;;;;;;5.03;2.33;;;;;;;;;;5151606;27;20047;-73
2023/08/20 10:24:48;;;;;;;4.68;2.50;;;;;;;;;;5151345;27;20053;-73
2023/08/20 10:27:28;;;;;;;4.55;2.40;;;;;;;;;;5151341;27;20494;-73
2023/08/20 10:29:55;;;;;;;;;;;;;;;;;;5152123;27;20043;-73
2023/08/20 10:32:49;;;;;;;8.45;2.40;;;;;;;;;;5150854;27;19970;-73
2023/08/20 10:35:46;;;;;;;6.68;2.20;;;;;;;;;;5151117;27;20047;-73
2023/08/20 10:38:17;;;;;;;4.82;2.30;;;;;;;;;;5151037;27;20046;-72
2023/08/20 10:40:58;;;;;;;4.18;1.88;;;;;;;;;;5151243;27;20042;-73
2023/08/20 10:43:37;;;;;;;4.10;2.42;;;;;;;;;;5151262;27;20440;-73
2023/08/20 10:46:13;;;;;;;4.35;2.30;;;;;;;;;;5150795;27;20050;-73
2023/08/20 10:48:40;;;;;;;4.75;1.95;;;;;;;;;;5151153;27;20046;-73
2023/08/20 10:51:11;;;;;;;4.63;2.30;;;;;;;;;;5150943;27;20087;-73
2023/08/20 10:53:38;;;;;;;5.95;2.30;;;;;;;;;;5150537;27;20043;-73
2023/08/20 10:56:15;;;;;;;4.75;2.28;;;;;;;;;;5150590;27;20050;-73
2023/08/20 10:58:46;;;;;;;6.70;2.60;;;;;;;;;;5151256;27;20046;-73
2023/08/20 11:01:15;;;;;;;4.47;2.20;;;;;;;;;;5151309;27;20055;-73
2023/08/20 11:03:45;;;;;;;5.45;2.20;;;;;;;;;;5150909;27;20043;-73
2023/08/20 11:06:12;;;;;;;3.72;2.35;;;;;;;;;;5150582;27;20046;-73
2023/08/20 11:08:39;;;;;;;6.45;2.92;;;;;;;;;;5150642;27;20043;-73
2023/08/20 11:11:07;;;;;;;5.20;2.10;;;;;;;;;;5150300;27;20051;-73
2023/08/20 11:13:35;;;;;;;4.18;2.33;;;;;;;;;;5150944;27;20047;-73
2023/08/20 11:16:02;;;;;;;5.57;2.30;;;;;;;;;;5150702;27;20091;-73
2023/08/20 11:18:33;;;;;;;4.50;2.28;;;;;;;;;;5150353;27;20042;-73
2023/08/20 11:21:01;;;;;;;5.57;2.60;;;;;;;;;;5150676;27;20046;-74
2023/08/20 11:23:28;;;;;;;3.95;2.40;;;;;;;;;;5150302;27;20049;-74
2023/08/20 11:25:57;;;;;;;3.08;2.00;;;;;;;;;;5150199;27;20537;-73
2023/08/20 11:28:26;;;;;;;4.60;2.22;;;;;;;;;;5150606;27;20066;-74
2023/08/20 11:30:54;;;;;;;7.63;2.40;;;;;;;;;;5150464;27;20107;-75
2023/08/20 11:33:22;;;;;;;5.72;2.00;;;;;;;;;;5150297;27;20054;-74
2023/08/20 11:35:49;;;;;;;3.65;2.00;;;;;;;;;;5150635;27;20047;-74
2023/08/20 11:38:16;;;;;;;8.23;2.60;;;;;;;;;;5149779;27;20387;-74
2023/08/20 11:40:43;;;;;;;4.50;2.63;;;;;;;;;;5150584;27;20039;-74
2023/08/20 11:43:09;;;;;;;4.45;2.72;;;;;;;;;;5150175;27;20130;-73
2023/08/20 11:45:47;;;;;;;6.15;2.40;;;;;;;;;;5150101;27;20132;-73
2023/08/20 11:48:16;;;;;;;5.25;2.42;;;;;;;;;;5148862;27;20130;-73
2023/08/20 11:50:43;;;;;;;6.03;2.40;;;;;;;;;;5150498;27;20047;-74
2023/08/20 11:53:10;;;;;;;4.70;2.42;;;;;;;;;;5150019;27;20064;-74
2023/08/20 11:55:39;;;;;;;3.97;2.15;;;;;;;;;;5150273;27;20074;-73
2023/08/20 11:58:09;;;;;;;5.75;2.50;;;;;;;;;;5150213;27;20103;-73
2023/08/20 12:00:36;;;;;;;2.80;2.10;;;;;;;;;;5150392;27;20051;-73
2023/08/20 12:03:03;;;;;;;4.88;2.35;;;;;;;;;;5149858;27;20092;-74
2023/08/20 12:05:31;;;;;;;5.20;2.47;;;;;;;;;;5150100;27;20049;-74
2023/08/20 12:07:59;;;;;;;4.53;2.60;;;;;;;;;;5149794;27;20055;-73
2023/08/20 12:10:28;;;;;;;7.88;2.47;;;;;;;;;;5150078;27;20054;-73
2023/08/20 12:12:56;;;;;;;4.60;2.30;;;;;;;;;;5150182;27;20073;-74
2023/08/20 12:15:24;;;;;;;4.93;2.35;;;;;;;;;;5150107;27;20047;-73
2023/08/20 12:18:04;;;;;;;5.97;2.33;;;;;;;;;;5148664;27;20122;-74
2023/08/20 12:20:34;;;;;;;3.47;2.25;;;;;;;;;;5150203;27;20047;-73
2023/08/20 12:23:05;;;;;;;5.75;2.60;;;;;;;;;;5149330;27;20497;-74
2023/08/20 12:25:36;;;;;;;5.85;2.30;;;;;;;;;;5149693;27;20047;-73
2023/08/20 12:28:05;;;;;;;5.03;2.47;;;;;;;;;;5149789;27;20122;-74
2023/08/20 12:30:35;;;;;;;6.70;2.17;;;;;;;;;;5150474;27;20078;-74
2023/08/20 12:33:05;;;;;;;4.10;2.50;;;;;;;;;;5153642;27;20517;-73
2023/08/20 12:35:35;;;;;;;5.75;2.38;;;;;;;;;;5153589;27;20597;-73
2023/08/20 12:38:03;;;;;;;4.00;2.47;;;;;;;;;;5153070;27;20043;-75
2023/08/20 12:40:32;;;;;;;4.90;2.50;;;;;;;;;;5152369;27;20043;-73
2023/08/20 12:43:01;;;;;;;4.60;2.22;;;;;;;;;;5153329;27;20078;-74
2023/08/20 12:45:27;;;;;;;4.38;2.15;;;;;;;;;;5153615;27;20058;-74
2023/08/20 12:47:54;;;;;;;5.13;2.03;;;;;;;;;;5153444;27;20530;-73
2023/08/20 12:50:21;;;;;;;5.63;2.15;;;;;;;;;;5153395;27;20054;-74
2023/08/20 12:52:50;;;;;;;5.90;2.35;;;;;;;;;;5152903;27;20047;-74
2023/08/20 12:55:17;;;;;;;7.10;2.60;;;;;;;;;;5153559;27;20127;-73
2023/08/20 12:57:54;;;;;;;4.75;2.08;;;;;;;;;;5153247;27;20054;-74
2023/08/20 13:00:22;;;;;;;6.03;2.15;;;;;;;;;;5153225;27;20110;-73
2023/08/20 13:02:49;;;;;;;4.15;2.10;;;;;;;;;;5153109;27;20125;-74
2023/08/20 13:05:17;;;;;;;6.85;2.45;;;;;;;;;;5153321;27;20122;-73
2023/08/20 13:07:44;;;;;;;4.00;2.28;;;;;;;;;;5152446;27;20511;-73
2023/08/20 13:10:12;;;;;;;4.95;2.40;;;;;;;;;;5153310;27;20051;-73
2023/08/20 13:12:41;;;;;;;4.72;2.25;;;;;;;;;;5152840;27;20073;-73
2023/08/20 13:15:10;;;;;;;2.90;2.00;;;;;;;;;;5153113;27;20681;-73
2023/08/20 13:17:37;;;;;;;6.30;2.33;;;;;;;;;;5152866;27;20043;-74
2023/08/20 13:20:05;;;;;;;4.80;2.20;;;;;;;;;;5152891;27;20038;-73
2023/08/20 13:22:35;;;;;;;5.22;2.63;;;;;;;;;;5152456;27;20058;-73
2023/08/20 13:25:04;;;;;;;4.13;2.10;;;;;;;;;;5152809;27;20047;-74
2023/08/20 13:27:33;;;;;;;4.73;2.03;;;;;;;;;;5152394;27;20284;-74
2023/08/20 13:30:01;;;;;;;4.30;2.33;;;;;;;;;;5153012;27;20105;-74
2023/08/20 13:32:27;;;;;;;3.83;2.22;;;;;;;;;;5152300;27;20129;-74
2023/08/20 13:34:54;;;;;;;3.08;2.00;;;;;;;;;;5152220;27;20054;-74
2023/08/20 13:37:21;;;;;;;3.35;2.03;;;;;;;;;;5152348;27;20046;-73
2023/08/20 13:39:47;;;;;;;4.63;2.20;;;;;;;;;;5152660;27;20042;-73
2023/08/20 13:42:14;;;;;;;4.40;2.10;;;;;;;;;;5152329;27;20596;-73
2023/08/20 13:44:41;;;;;;;5.57;2.40;;;;;;;;;;5152246;27;20486;-73
2023/08/20 13:47:10;;;;;;;6.03;2.70;;;;;;;;;;5152168;27;20607;-74
2023/08/20 13:49:40;;;;;;;3.63;2.30;;;;;;;;;;5151983;27;20043;-74
2023/08/20 13:52:07;;;;;;;6.13;2.55;;;;;;;;;;5150890;27;20050;-74
2023/08/20 13:54:36;;;;;;;4.38;2.20;;;;;;;;;;5152070;27;20126;-74
2023/08/20 13:57:05;;;;;;;5.20;2.30;;;;;;;;;;5152516;27;20035;-74
2023/08/20 13:59:34;;;;;;;4.93;2.08;;;;;;;;;;5152074;27;20043;-74
2023/08/20 14:02:01;;;;;;;4.93;2.13;;;;;;;;;;5152365;27;20047;-73
2023/08/20 14:04:27;;;;;;;8.00;2.28;;;;;;;;;;5151988;27;20061;-74
2023/08/20 14:06:54;;;;;;;5.40;2.35;;;;;;;;;;5151659;27;20507;-74
2023/08/20 14:09:21;;;;;;;3.92;2.38;;;;;;;;;;5151074;27;20042;-74
2023/08/20 14:11:47;;;;;;;7.43;2.40;;;;;;;;;;5151791;27;20062;-74
2023/08/20 14:14:14;;;;;;;3.50;2.13;;;;;;;;;;5151358;27;20402;-73
2023/08/20 14:16:41;;;;;;;6.30;2.30;;;;;;;;;;5151571;27;20046;-73
2023/08/20 14:19:07;;;;;;;5.93;2.30;;;;;;;;;;5151743;27;20039;-74
2023/08/20 14:21:34;;;;;;;5.53;2.10;;;;;;;;;;5151875;27;20047;-74
2023/08/20 14:24:01;;;;;;;4.45;2.08;;;;;;;;;;5151268;27;20047;-74
2023/08/20 14:26:28;;;;;;;4.78;1.90;;;;;;;;;;5151384;27;20142;-74
2023/08/20 14:28:54;;;;;;;4.30;2.08;;;;;;;;;;5151172;27;20057;-73
2023/08/20 14:31:21;;;;;;;4.15;1.90;;;;;;;;;;5151627;27;20051;-74
2023/08/20 14:33:48;;;;;;;5.55;1.95;;;;;;;;;;5150972;27;20133;-73
2023/08/20 14:36:15;;;;;;;3.15;2.20;;;;;;;;;;5151482;27;20046;-73
2023/08/20 14:38:42;;;;;;;7.72;2.17;;;;;;;;;;5149720;27;20046;-74
2023/08/20 14:41:08;;;;;;;6.25;2.15;;;;;;;;;;5151427;27;20043;-73
2023/08/20 14:43:35;;;;;;;4.88;2.40;;;;;;;;;;5150642;27;20042;-73
2023/08/20 14:46:02;;;;;;;5.03;2.20;;;;;;;;;;5151069;27;20493;-73
2023/08/20 14:48:29;;;;;;;6.03;2.13;;;;;;;;;;5151106;27;20046;-74